SKBOSKCL

Guest
Details From SKBO - Bogota - El Dorado Intl
To SKCL - ALFONSO BONILLA ARAGON INTL
Flight Number -
Tags decoded
Created
Modified
Stats Distance 153 nm / 283 km
Max Altitude 0 ft / 0 m
Waypoints 6
Social Downloads 0
Likes 0
Share VATSIM

Download

Looking for another format? Having issues loading an existing format? Contact us
Advertisement - Login to hide

Notes

Requested: SKBO KAMIS GIR R564 MANGA SKCL

Route

SKBO KAMIS GIR R564 MANGA SKCL

ID Type Via Altitude Latitude Longitude Leg Dist Tot Dist Heading (true) Name
O SKBO APT - 0 ft / 0 m 4.70159˚ -74.14695˚ - 0 nm - Bogota - El Dorado Intl
KAMIS FIX - 0 ft / 0 m 4.36500˚ -74.61639˚ 34 nm 34 nm 234° / 234° -
GIR VOR - 0 ft / 0 m 4.19167˚ -74.86583˚ 18 nm 52 nm 235° / 235° GIRARDOT VOR-DME
OREGA FIX R564 (AWY-LO) 0 ft / 0 m 3.86861˚ -75.49667˚ 42 nm 95 nm 243° / 243° -
MANGA FIX R564 (AWY-LO) 0 ft / 0 m 3.56111˚ -76.09611˚ 40 nm 135 nm 243° / 243° -
O SKCL APT - 0 ft / 0 m 3.54322˚ -76.38159˚ 17 nm 152 nm 266° / 266° ALFONSO BONILLA ARAGON INTL

Altitude Profile

Advertisement - Login to hide

SKBO

Details ICAO SKBO (BOG)
Name Bogota - El Dorado Intl
Region Colombia
Timezone America/Bogota (UTC-5.0)
Stats Elevation 8,361 ft / 2,548 m (AMSL)
Location 4.701594° -74.146946°
Runways 2
Magnetic Variation 7.267° W

METAR

SKBO 141700Z 13007KT 9999 BKN020 19/06 A3031

Decode

TAF

Not found

Departure Runways

ID Width Length Bearing (true) Bearing (mag) Surface Threshold Offset Overrun Length
13L 148 ft / 45 m 12,482 ft / 3,804 m 127.21° 134.48° Asphalt 0 ft / 0 m 0 ft / 0 m
13R 148 ft / 45 m 12,494 ft / 3,808 m 127.23° 134.50° Asphalt 0 ft / 0 m 200 ft / 61 m
31L 148 ft / 45 m 12,494 ft / 3,808 m 307.23° 314.50° Asphalt 0 ft / 0 m 190 ft / 58 m
31R 148 ft / 45 m 12,482 ft / 3,804 m 307.21° 314.48° Asphalt 0 ft / 0 m 0 ft / 0 m

SKCL

Details ICAO SKCL (CLO)
Name ALFONSO BONILLA ARAGON INTL
Region Colombia
Timezone America/Bogota (UTC-5.0)
Stats Elevation 3,162 ft / 964 m (AMSL)
Location 3.543221° -76.381587°
Runways 1
Magnetic Variation 5.583° W

METAR

SKCL 141700Z 05006KT 9000 SCT020 28/19 A2995

Decode

TAF

Not found

Destination Runways

ID Width Length Bearing (true) Bearing (mag) Surface Threshold Offset Overrun Length
01 148 ft / 45 m 9,869 ft / 3,008 m 9.91° 15.49° Asphalt 0 ft / 0 m 50 ft / 15 m
19 148 ft / 45 m 9,869 ft / 3,008 m 189.91° 195.49° Asphalt 0 ft / 0 m 65 ft / 20 m

Approach Navaids

Runway Type Ident Frequency Range Bearing (true) Bearing (mag) Slope Elevation
01 Localiser IPAS 109.90 MHz 18 nm / 33 km 9.69° 15.27° - 3,162 ft / 964 m (AMSL)
01 Glidescope IPAS 109.90 MHz 10 nm / 19 km 9.91° 15.49° 2.50° 3,162 ft / 964 m (AMSL)

Popular Alternatives